createdAt,value
2023-01-10T00:01:30.582Z,0.98
2023-01-10T00:06:54.153Z,0.98
2023-01-10T00:09:29.610Z,1.05
2023-01-10T00:12:21.884Z,0.90
2023-01-10T00:14:57.808Z,1.00
2023-01-10T00:17:36.243Z,0.90
2023-01-10T00:20:15.533Z,0.80
2023-01-10T00:22:53.487Z,0.90
2023-01-10T00:25:28.912Z,1.00
2023-01-10T00:28:12.658Z,0.90
2023-01-10T00:30:48.457Z,0.70
2023-01-10T00:33:23.637Z,0.70
2023-01-10T00:35:59.372Z,0.85
2023-01-10T00:38:38.579Z,0.80
2023-01-10T00:41:33.875Z,0.90
2023-01-10T00:44:08.311Z,1.23
2023-01-10T00:47:01.818Z,1.00
2023-01-10T00:49:54.447Z,0.90
2023-01-10T00:52:47.930Z,0.90
2023-01-10T00:55:42.446Z,1.00
2023-01-10T00:58:26.684Z,0.80
2023-01-10T01:01:33.197Z,0.75
2023-01-10T01:04:40.656Z,0.77
2023-01-10T01:07:48.139Z,0.90
2023-01-10T01:10:56.140Z,0.80
2023-01-10T01:13:32.642Z,0.80
2023-01-10T01:16:10.016Z,0.90
2023-01-10T01:18:45.128Z,0.90
2023-01-10T01:21:20.137Z,1.00
2023-01-10T01:23:54.924Z,0.95
2023-01-10T01:26:32.621Z,1.00
2023-01-10T01:29:11.021Z,1.00
2023-01-10T01:31:46.067Z,1.30
2023-01-10T01:34:20.817Z,1.23
2023-01-10T01:36:55.922Z,1.20
2023-01-10T01:39:30.939Z,1.17
2023-01-10T01:42:08.449Z,1.15
2023-01-10T01:44:44.241Z,1.15
2023-01-10T01:47:23.712Z,1.10
2023-01-10T01:49:58.969Z,1.10
2023-01-10T01:52:36.339Z,1.20
2023-01-10T01:55:14.091Z,1.20
2023-01-10T01:57:52.440Z,1.20
2023-01-10T02:00:28.360Z,0.98
2023-01-10T02:03:06.074Z,1.20
2023-01-10T02:05:42.674Z,1.00
2023-01-10T02:08:18.414Z,1.10
2023-01-10T02:11:00.411Z,1.10
2023-01-10T02:13:42.583Z,1.30
2023-01-10T02:16:19.513Z,1.00
2023-01-10T02:18:55.286Z,1.17
2023-01-10T02:22:01.561Z,1.20
2023-01-10T02:25:09.676Z,1.42
2023-01-10T02:28:03.801Z,1.00
2023-01-10T02:31:00.999Z,1.08
2023-01-10T02:33:44.405Z,0.90
2023-01-10T02:36:35.949Z,1.33
2023-01-10T02:39:15.268Z,1.15
2023-01-10T02:44:27.056Z,1.10
2023-01-10T02:47:03.817Z,1.30
2023-01-10T02:49:46.902Z,0.90
2023-01-10T02:52:23.646Z,0.90
2023-01-10T02:55:01.000Z,1.10
2023-01-10T02:57:46.807Z,1.00
2023-01-10T03:00:28.502Z,1.00
2023-01-10T03:03:11.528Z,1.20
2023-01-10T03:05:53.041Z,1.23
2023-01-10T03:08:35.323Z,1.20
2023-01-10T03:11:13.740Z,0.93
2023-01-10T03:13:52.742Z,1.10
2023-01-10T03:16:32.840Z,0.93
2023-01-10T03:19:09.187Z,1.20
2023-01-10T03:21:48.716Z,1.10
2023-01-10T03:24:26.134Z,1.20
2023-01-10T03:27:07.136Z,1.10
2023-01-10T03:29:48.316Z,1.00
2023-01-10T03:32:32.116Z,1.13
2023-01-10T03:35:08.353Z,0.85
2023-01-10T03:37:46.336Z,1.00
2023-01-10T03:40:21.722Z,1.08
2023-01-10T03:43:21.777Z,0.95
2023-01-10T03:45:59.942Z,0.90
2023-01-10T03:48:38.290Z,0.80
2023-01-10T03:51:28.161Z,0.77
2023-01-10T03:54:21.162Z,0.80
2023-01-10T03:56:57.049Z,0.80
2023-01-10T03:59:32.786Z,0.90
2023-01-10T04:02:07.737Z,0.80
2023-01-10T04:04:45.258Z,0.85
2023-01-10T04:07:19.928Z,1.08
2023-01-10T04:09:54.476Z,0.98
2023-01-10T04:12:29.885Z,1.00
2023-01-10T04:15:05.454Z,0.80
2023-01-10T04:17:40.370Z,0.80
2023-01-10T04:20:17.637Z,0.93
2023-01-10T04:22:59.024Z,1.00
2023-01-10T04:25:35.319Z,1.00
2023-01-10T04:28:24.676Z,1.10
2023-01-10T04:31:01.927Z,0.80
2023-01-10T04:33:38.361Z,1.00
2023-01-10T04:36:16.197Z,0.90
2023-01-10T04:38:51.098Z,1.02
2023-01-10T04:41:26.519Z,0.88
2023-01-10T04:44:03.125Z,0.80
2023-01-10T04:46:39.773Z,0.95
2023-01-10T04:49:16.040Z,0.98
2023-01-10T04:51:54.899Z,1.08
2023-01-10T04:54:29.957Z,0.80
2023-01-10T04:57:08.664Z,0.82
2023-01-10T04:59:44.868Z,1.00
2023-01-10T05:02:21.099Z,0.90
2023-01-10T05:04:56.162Z,0.82
2023-01-10T05:07:33.793Z,1.00
2023-01-10T05:10:08.897Z,0.90
2023-01-10T05:12:43.869Z,1.20
2023-01-10T05:15:19.614Z,1.00
2023-01-10T05:18:22.643Z,1.20
2023-01-10T05:20:58.764Z,1.17
2023-01-10T05:23:36.056Z,0.80
2023-01-10T05:26:13.332Z,0.90
2023-01-10T05:28:50.173Z,0.85
2023-01-10T05:31:28.555Z,0.90
2023-01-10T05:34:04.151Z,0.80
2023-01-10T05:36:39.982Z,1.00
2023-01-10T05:39:18.342Z,0.73
2023-01-10T05:41:55.410Z,0.80
2023-01-10T05:44:30.813Z,1.00
2023-01-10T05:47:07.197Z,0.93
2023-01-10T05:50:01.799Z,0.73
2023-01-10T05:52:37.521Z,0.88
2023-01-10T05:55:15.119Z,0.75
2023-01-10T05:57:51.291Z,0.80
2023-01-10T06:01:47.736Z,0.90
2023-01-10T06:04:23.241Z,0.90
2023-01-10T06:06:59.463Z,0.80
2023-01-10T06:09:35.168Z,0.80
2023-01-10T06:12:13.973Z,0.80
2023-01-10T06:14:49.749Z,0.75
2023-01-10T06:17:25.145Z,0.98
2023-01-10T06:20:00.967Z,0.80
2023-01-10T06:22:38.277Z,0.90
2023-01-10T06:25:15.143Z,0.70
2023-01-10T06:27:52.766Z,0.90
2023-01-10T06:30:28.624Z,0.80
2023-01-10T06:33:08.114Z,0.88
2023-01-10T06:35:43.806Z,1.00
2023-01-10T06:38:20.157Z,0.70
2023-01-10T06:40:55.888Z,0.73
2023-01-10T06:43:34.351Z,0.93
2023-01-10T06:46:12.428Z,0.80
2023-01-10T06:48:48.614Z,0.85
2023-01-10T06:51:24.612Z,0.90
2023-01-10T06:54:01.957Z,0.90
2023-01-10T06:56:37.590Z,0.90
2023-01-10T06:59:15.373Z,0.90
2023-01-10T07:01:50.975Z,0.90
2023-01-10T07:04:28.543Z,0.90
2023-01-10T07:07:05.916Z,1.00
2023-01-10T07:09:42.062Z,0.98
2023-01-10T07:12:17.557Z,0.90
2023-01-10T07:14:55.733Z,0.80
2023-01-10T07:17:31.383Z,0.80
2023-01-10T07:20:06.882Z,0.95
2023-01-10T07:22:42.663Z,1.30
2023-01-10T07:25:19.531Z,3.47
2023-01-10T07:27:56.971Z,1.50
2023-01-10T07:30:34.451Z,2.63
2023-01-10T07:33:10.134Z,1.13
2023-01-10T07:35:47.222Z,1.27
2023-01-10T07:38:22.723Z,1.45
2023-01-10T07:40:58.631Z,1.20
2023-01-10T07:43:34.585Z,1.10
2023-01-10T07:46:16.144Z,3.85
2023-01-10T07:48:51.965Z,1.70
2023-01-10T07:51:27.491Z,2.90
2023-01-10T07:54:03.171Z,1.40
2023-01-10T07:56:40.437Z,1.23
2023-01-10T07:59:16.387Z,0.98
2023-01-10T08:01:53.704Z,1.00
2023-01-10T08:04:29.438Z,1.17
2023-01-10T08:07:05.975Z,1.35
2023-01-10T08:09:41.642Z,1.70
2023-01-10T08:12:17.838Z,1.63
2023-01-10T08:14:53.447Z,1.92
2023-01-10T08:17:31.820Z,1.27
2023-01-10T08:20:07.590Z,1.90
2023-01-10T08:22:43.026Z,1.10
2023-01-10T08:25:18.723Z,1.20
2023-01-10T08:27:55.799Z,1.42
2023-01-10T08:30:31.365Z,1.08
2023-01-10T08:33:10.647Z,1.00
2023-01-10T08:35:47.798Z,1.00
2023-01-10T08:38:24.111Z,1.40
2023-01-10T08:41:02.104Z,1.10
2023-01-10T08:43:38.156Z,1.20
2023-01-10T08:46:13.873Z,1.00
2023-01-10T08:48:53.516Z,1.20
2023-01-10T08:51:29.701Z,1.10
2023-01-10T08:54:05.267Z,1.38
2023-01-10T08:56:42.072Z,1.10
2023-01-10T08:59:19.132Z,1.30
2023-01-10T09:01:54.826Z,1.20
2023-01-10T09:04:33.130Z,1.70
2023-01-10T09:07:08.754Z,1.58
2023-01-10T09:09:46.466Z,2.20
2023-01-10T09:12:41.458Z,1.20
2023-01-10T09:15:18.125Z,1.67
2023-01-10T09:17:53.748Z,1.30
2023-01-10T09:20:35.462Z,1.30
2023-01-10T09:23:14.680Z,1.20
2023-01-10T09:25:50.597Z,1.20
2023-01-10T09:28:27.893Z,1.30
2023-01-10T09:31:06.284Z,1.10
2023-01-10T09:33:47.038Z,1.00
2023-01-10T09:36:25.035Z,1.20
2023-01-10T09:39:00.536Z,0.98
2023-01-10T09:41:56.499Z,1.10
2023-01-10T09:44:43.761Z,1.25
2023-01-10T09:47:27.645Z,0.90
2023-01-10T09:50:17.053Z,1.20
2023-01-10T09:53:00.188Z,1.02
2023-01-10T09:55:38.221Z,1.08
2023-01-10T09:58:18.778Z,1.25
2023-01-10T10:00:59.132Z,1.20
2023-01-10T10:03:42.100Z,0.98
2023-01-10T10:06:19.189Z,1.10
2023-01-10T10:08:57.108Z,1.20
2023-01-10T10:11:54.331Z,1.23
2023-01-10T10:14:41.665Z,1.20
2023-01-10T10:17:31.371Z,1.20
2023-01-10T10:20:19.982Z,1.20
2023-01-10T10:23:06.323Z,1.13
2023-01-10T10:25:56.798Z,1.30
2023-01-10T10:29:07.973Z,1.33
2023-01-10T10:31:54.814Z,1.20
2023-01-10T10:34:38.144Z,1.25
2023-01-10T10:37:22.786Z,1.20
2023-01-10T10:40:00.943Z,1.10
2023-01-10T10:42:41.605Z,1.10
2023-01-10T10:45:25.440Z,1.52
2023-01-10T10:48:05.048Z,0.90
2023-01-10T10:50:44.654Z,1.10
2023-01-10T10:53:20.987Z,1.00
2023-01-10T10:55:57.214Z,1.10
2023-01-10T10:58:36.554Z,1.75
2023-01-10T11:01:16.039Z,1.10
2023-01-10T11:03:55.918Z,1.25
2023-01-10T11:06:34.163Z,1.10
2023-01-10T11:09:11.887Z,1.20
2023-01-10T11:11:52.072Z,1.13
2023-01-10T11:14:50.292Z,1.20
2023-01-10T11:17:28.377Z,1.10
2023-01-10T11:20:06.667Z,1.20
2023-01-10T11:22:48.394Z,1.23
2023-01-10T11:25:25.571Z,1.33
2023-01-10T11:28:02.801Z,1.00
2023-01-10T11:30:41.155Z,1.00
2023-01-10T11:33:26.343Z,1.20
2023-01-10T11:36:07.381Z,1.08
2023-01-10T11:38:43.965Z,1.23
2023-01-10T11:41:35.872Z,1.00
2023-01-10T11:44:26.841Z,0.90
2023-01-10T11:47:08.726Z,1.20
2023-01-10T11:49:46.768Z,0.90
2023-01-10T11:52:28.306Z,1.15
2023-01-10T11:55:06.792Z,1.00
2023-01-10T11:57:44.443Z,1.00
2023-01-10T12:00:20.897Z,1.08
2023-01-10T12:02:59.269Z,1.13
2023-01-10T12:05:36.497Z,1.00
2023-01-10T12:08:27.229Z,1.10
2023-01-10T12:11:05.824Z,1.00
2023-01-10T12:13:53.316Z,1.30
2023-01-10T12:16:30.259Z,1.00
2023-01-10T12:19:09.726Z,1.02
2023-01-10T12:21:47.221Z,1.10
2023-01-10T12:24:27.671Z,1.27
2023-01-10T12:27:04.425Z,0.90
2023-01-10T12:29:45.338Z,1.00
2023-01-10T12:32:27.909Z,1.00
2023-01-10T12:35:08.815Z,1.20
2023-01-10T12:37:50.715Z,1.20
2023-01-10T12:40:37.406Z,1.25
2023-01-10T12:43:37.271Z,1.10
2023-01-10T12:46:36.011Z,0.88
2023-01-10T12:49:24.876Z,1.08
2023-01-10T12:52:07.499Z,1.00
2023-01-10T12:54:43.443Z,0.90
2023-01-10T12:57:29.400Z,1.10
2023-01-10T13:00:09.019Z,1.35
2023-01-10T13:02:47.001Z,1.05
2023-01-10T13:05:26.069Z,1.20
2023-01-10T13:08:09.474Z,0.93
2023-01-10T13:10:50.501Z,0.90
2023-01-10T13:13:34.393Z,0.95
2023-01-10T13:16:27.150Z,1.00
2023-01-10T13:19:08.735Z,1.13
2023-01-10T13:21:46.184Z,1.00
2023-01-10T13:24:28.043Z,0.80
2023-01-10T13:27:04.771Z,1.00
2023-01-10T13:29:46.296Z,1.00
2023-01-10T13:32:27.704Z,1.00
2023-01-10T13:35:17.342Z,1.10
2023-01-10T13:38:01.027Z,1.02
2023-01-10T13:40:39.106Z,0.98
2023-01-10T13:43:45.285Z,1.00
2023-01-10T13:46:40.106Z,1.20
2023-01-10T13:49:49.066Z,1.00
2023-01-10T13:52:37.590Z,1.42
2023-01-10T13:55:37.087Z,1.10
2023-01-10T13:59:10.930Z,1.10
2023-01-10T14:02:04.222Z,1.10
2023-01-10T14:04:42.642Z,0.90
2023-01-10T14:07:28.284Z,0.88
2023-01-10T14:10:08.801Z,0.90
2023-01-10T14:12:56.952Z,0.98
2023-01-10T14:15:35.834Z,1.00
2023-01-10T14:18:22.507Z,1.00
2023-01-10T14:21:04.585Z,1.10
2023-01-10T14:23:44.480Z,1.42
2023-01-10T14:26:27.405Z,1.00
2023-01-10T14:29:06.980Z,1.23
2023-01-10T14:31:48.960Z,1.25
2023-01-10T14:34:28.864Z,0.95
2023-01-10T14:37:06.572Z,1.00
2023-01-10T14:39:50.013Z,0.90
2023-01-10T14:42:26.274Z,1.10
2023-01-10T14:45:08.002Z,1.25
2023-01-10T14:47:46.778Z,1.00
2023-01-10T14:50:34.443Z,0.95
2023-01-10T14:53:09.961Z,1.05
2023-01-10T14:55:49.554Z,0.95
2023-01-10T14:58:34.491Z,1.00
2023-01-10T15:01:15.032Z,1.23
2023-01-10T15:03:54.269Z,1.10
2023-01-10T15:06:32.252Z,1.10
2023-01-10T15:09:11.626Z,1.02
2023-01-10T15:11:48.485Z,1.10
2023-01-10T15:14:31.264Z,1.00
2023-01-10T15:17:10.808Z,1.20
2023-01-10T15:20:01.341Z,1.10
2023-01-10T15:22:41.080Z,1.17
2023-01-10T15:25:46.509Z,1.00
2023-01-10T15:28:25.435Z,1.30
2023-01-10T15:31:01.896Z,1.40
2023-01-10T15:33:41.327Z,1.08
2023-01-10T15:36:21.885Z,1.00
2023-01-10T15:38:59.351Z,1.20
2023-01-10T15:41:40.400Z,1.20
2023-01-10T15:44:38.626Z,1.10
2023-01-10T15:47:48.674Z,1.20
2023-01-10T15:50:28.705Z,1.20
2023-01-10T15:53:07.398Z,1.30
2023-01-10T15:55:48.243Z,1.50
2023-01-10T15:58:28.762Z,1.30
2023-01-10T16:01:06.227Z,1.20
2023-01-10T16:03:43.767Z,1.17
2023-01-10T16:06:33.533Z,1.15
2023-01-10T16:09:12.827Z,1.30
2023-01-10T16:12:09.963Z,1.10
2023-01-10T16:14:45.519Z,1.20
2023-01-10T16:17:22.910Z,1.42
2023-01-10T16:19:59.612Z,1.20
2023-01-10T16:22:38.369Z,0.98
2023-01-10T16:25:20.310Z,0.98
2023-01-10T16:27:57.951Z,1.05
2023-01-10T16:30:34.803Z,1.00
2023-01-10T16:33:18.005Z,1.10
2023-01-10T16:35:54.683Z,1.40
2023-01-10T16:38:31.233Z,1.20
2023-01-10T16:41:29.402Z,0.90
2023-01-10T16:44:04.264Z,1.40
2023-01-10T16:46:39.704Z,1.15
2023-01-10T16:49:17.543Z,1.30
2023-01-10T16:51:54.009Z,1.30
2023-01-10T16:54:30.954Z,1.00
2023-01-10T16:57:09.509Z,1.05
2023-01-10T16:59:46.570Z,1.40
2023-01-10T17:02:23.547Z,1.00
2023-01-10T17:05:01.027Z,1.20
2023-01-10T17:07:36.932Z,1.30
2023-01-10T17:10:14.038Z,1.38
2023-01-10T17:12:52.660Z,1.25
2023-01-10T17:15:30.290Z,1.40
2023-01-10T17:18:05.684Z,1.20
2023-01-10T17:20:42.275Z,1.35
2023-01-10T17:23:19.072Z,1.20
2023-01-10T17:25:55.384Z,1.13
2023-01-10T17:28:33.021Z,1.35
2023-01-10T17:31:09.358Z,1.10
2023-01-10T17:33:45.062Z,1.20
2023-01-10T17:36:21.521Z,1.50
2023-01-10T17:38:57.079Z,1.10
2023-01-10T17:41:33.315Z,1.40
2023-01-10T17:44:10.480Z,1.45
2023-01-10T17:46:47.014Z,1.40
2023-01-10T17:49:22.010Z,1.60
2023-01-10T17:52:00.456Z,1.50
2023-01-10T17:54:36.669Z,1.30
2023-01-10T17:57:13.267Z,1.42
2023-01-10T17:59:50.700Z,1.48
2023-01-10T18:02:26.920Z,1.40
2023-01-10T18:05:02.367Z,1.33
2023-01-10T18:07:39.521Z,1.30
2023-01-10T18:10:16.897Z,1.80
2023-01-10T18:12:53.181Z,1.50
2023-01-10T18:15:32.573Z,1.55
2023-01-10T18:18:09.602Z,1.70
2023-01-10T18:20:46.661Z,1.63
2023-01-10T18:23:27.223Z,1.88
2023-01-10T18:26:03.814Z,1.65
2023-01-10T18:28:42.889Z,1.80
2023-01-10T18:31:22.685Z,1.50
2023-01-10T18:33:58.799Z,1.52
2023-01-10T18:36:36.577Z,1.55
2023-01-10T18:39:14.231Z,1.63
2023-01-10T18:41:50.671Z,1.52
2023-01-10T18:44:29.035Z,1.90
2023-01-10T18:47:08.390Z,1.75
2023-01-10T18:49:44.953Z,1.98
2023-01-10T18:52:22.854Z,1.77
2023-01-10T18:55:01.496Z,2.13
2023-01-10T18:57:37.823Z,1.70
2023-01-10T19:00:14.329Z,2.00
2023-01-10T19:02:52.089Z,1.77
2023-01-10T19:05:29.022Z,1.70
2023-01-10T19:08:04.573Z,1.98
2023-01-10T19:11:03.312Z,1.80
2023-01-10T19:13:36.538Z,2.10
2023-01-10T19:16:16.436Z,2.10
2023-01-10T19:18:55.920Z,2.13
2023-01-10T19:21:32.165Z,2.30
2023-01-10T19:24:08.616Z,2.33
2023-01-10T19:26:45.316Z,2.30
2023-01-10T19:29:21.140Z,2.63
2023-01-10T19:31:57.668Z,1.88
2023-01-10T19:34:35.349Z,2.10
2023-01-10T19:37:11.472Z,2.10
2023-01-10T19:39:46.592Z,1.98
2023-01-10T19:42:26.238Z,2.40
2023-01-10T19:45:02.937Z,1.98
2023-01-10T19:47:40.845Z,2.13
2023-01-10T19:50:20.702Z,2.17
2023-01-10T19:52:59.046Z,1.90
2023-01-10T19:55:37.258Z,2.38
2023-01-10T19:58:15.843Z,2.03
2023-01-10T20:00:51.401Z,2.30
2023-01-10T20:03:28.461Z,1.90
2023-01-10T20:06:10.866Z,2.30
2023-01-10T20:08:49.316Z,1.85
2023-01-10T20:11:26.302Z,2.00
2023-01-10T20:14:04.535Z,2.08
2023-01-10T20:16:40.428Z,2.20
2023-01-10T20:19:17.639Z,2.10
2023-01-10T20:21:57.163Z,1.92
2023-01-10T20:24:36.644Z,2.00
2023-01-10T20:27:11.997Z,2.10
2023-01-10T20:29:49.187Z,2.10
2023-01-10T20:32:24.740Z,2.33
2023-01-10T20:35:02.374Z,2.03
2023-01-10T20:37:39.825Z,2.20
2023-01-10T20:40:16.764Z,1.85
2023-01-10T20:42:55.923Z,2.00
2023-01-10T20:45:33.049Z,1.98
2023-01-10T20:48:08.585Z,2.30
2023-01-10T20:50:47.913Z,2.33
2023-01-10T20:53:25.511Z,2.28
2023-01-10T20:56:05.951Z,2.15
2023-01-10T20:58:41.373Z,1.95
2023-01-10T21:01:28.797Z,2.00
2023-01-10T21:04:09.952Z,2.40
2023-01-10T21:06:46.224Z,2.08
2023-01-10T21:09:23.793Z,2.15
2023-01-10T21:12:13.869Z,2.15
2023-01-10T21:14:54.497Z,1.77
2023-01-10T21:17:31.408Z,2.22
2023-01-10T21:20:07.060Z,2.10
2023-01-10T21:22:43.311Z,1.90
2023-01-10T21:25:20.717Z,2.30
2023-01-10T21:27:56.985Z,1.83
2023-01-10T21:30:32.472Z,2.15
2023-01-10T21:33:09.482Z,2.20
2023-01-10T21:35:45.223Z,1.98
2023-01-10T21:38:21.427Z,2.30
2023-01-10T21:41:00.333Z,2.15
2023-01-10T21:43:37.340Z,2.20
2023-01-10T21:46:12.833Z,2.17
2023-01-10T21:48:50.024Z,2.08
2023-01-10T21:51:25.358Z,2.22
2023-01-10T21:54:01.539Z,2.65
2023-01-10T21:56:39.060Z,2.53
2023-01-10T21:59:15.356Z,2.10
2023-01-10T22:01:51.567Z,2.63
2023-01-10T22:04:28.283Z,2.25
2023-01-10T22:07:03.513Z,2.10
2023-01-10T22:09:39.623Z,2.13
2023-01-10T22:12:17.389Z,2.40
2023-01-10T22:14:53.884Z,2.13
2023-01-10T22:17:29.600Z,2.25
2023-01-10T22:20:06.569Z,2.47
2023-01-10T22:22:43.383Z,2.33
2023-01-10T22:25:23.651Z,1.85
2023-01-10T22:28:01.103Z,2.25
2023-01-10T22:30:37.324Z,2.28
2023-01-10T22:33:13.005Z,2.15
2023-01-10T22:35:49.725Z,2.45
2023-01-10T22:38:25.386Z,2.10
2023-01-10T22:41:01.455Z,2.22
2023-01-10T22:43:38.973Z,2.28
2023-01-10T22:46:17.317Z,2.67
2023-01-10T22:48:53.293Z,2.22
2023-01-10T22:51:30.660Z,2.28
2023-01-10T22:54:06.201Z,2.08
2023-01-10T22:56:42.301Z,2.47
2023-01-10T23:02:11.865Z,2.28
2023-01-10T23:04:47.394Z,2.15
2023-01-10T23:07:24.102Z,2.20
2023-01-10T23:09:59.508Z,1.77
2023-01-10T23:12:36.129Z,1.77
2023-01-10T23:15:14.278Z,2.10
2023-01-10T23:17:50.268Z,2.25
2023-01-10T23:20:25.801Z,1.83
2023-01-10T23:23:02.534Z,2.10
2023-01-10T23:25:37.944Z,2.22
2023-01-10T23:28:14.265Z,2.20
2023-01-10T23:30:51.715Z,1.98
2023-01-10T23:33:27.707Z,1.90
2023-01-10T23:36:03.464Z,1.92
2023-01-10T23:38:40.020Z,2.00
2023-01-10T23:41:17.791Z,1.90
2023-01-10T23:43:55.829Z,2.20
2023-01-10T23:46:34.787Z,2.22
2023-01-10T23:49:09.958Z,1.80
2023-01-10T23:51:44.501Z,2.30
2023-01-10T23:54:20.976Z,2.17
2023-01-10T23:56:58.592Z,2.13
2023-01-10T23:59:36.990Z,1.75
